sensor_id;sensor_type;location;lat;lon;timestamp;temperature;humidity
40960;DHT22;27842;52.272;8.052;2023-12-22T07:43:36;6.30;99.90
40960;DHT22;27842;52.272;8.052;2023-12-22T07:46:02;6.30;99.90
40960;DHT22;27842;52.272;8.052;2023-12-22T07:48:27;6.30;99.90
40960;DHT22;27842;52.272;8.052;2023-12-22T07:50:53;6.30;99.90
40960;DHT22;27842;52.272;8.052;2023-12-22T07:53:19;6.40;99.90
40960;DHT22;27842;52.272;8.052;2023-12-22T07:55:45;6.40;99.90
40960;DHT22;27842;52.272;8.052;2023-12-22T07:58:11;6.40;99.90
40960;DHT22;27842;52.272;8.052;2023-12-22T08:00:36;6.40;99.90
40960;DHT22;27842;52.272;8.052;2023-12-22T08:03:02;6.40;99.90
40960;DHT22;27842;52.272;8.052;2023-12-22T08:05:28;6.40;99.90
40960;DHT22;27842;52.272;8.052;2023-12-22T08:07:55;6.40;99.90
40960;DHT22;27842;52.272;8.052;2023-12-22T08:10:28;6.40;99.90
40960;DHT22;27842;52.272;8.052;2023-12-22T08:23:48;6.40;99.90
40960;DHT22;27842;52.272;8.052;2023-12-22T08:34:13;6.50;99.90
40960;DHT22;27842;52.272;8.052;2023-12-22T08:36:39;6.50;99.90
40960;DHT22;27842;52.272;8.052;2023-12-22T08:39:04;6.50;99.90
40960;DHT22;27842;52.272;8.052;2023-12-22T08:41:33;6.50;99.90
40960;DHT22;27842;52.272;8.052;2023-12-22T08:44:21;6.50;99.90
40960;DHT22;27842;52.272;8.052;2023-12-22T08:46:47;6.60;99.90
40960;DHT22;27842;52.272;8.052;2023-12-22T08:49:13;6.50;99.90
40960;DHT22;27842;52.272;8.052;2023-12-22T08:51:38;6.50;99.90
40960;DHT22;27842;52.272;8.052;2023-12-22T08:54:05;6.50;99.90
40960;DHT22;27842;52.272;8.052;2023-12-22T08:56:30;6.50;99.90
40960;DHT22;27842;52.272;8.052;2023-12-22T08:58:56;6.60;99.90
40960;DHT22;27842;52.272;8.052;2023-12-22T09:01:24;6.50;99.90
40960;DHT22;27842;52.272;8.052;2023-12-22T09:24:34;6.60;99.90
40960;DHT22;27842;52.272;8.052;2023-12-22T09:27:00;6.50;99.90
40960;DHT22;27842;52.272;8.052;2023-12-22T09:29:31;6.60;99.90
40960;DHT22;27842;52.272;8.052;2023-12-22T09:32:01;6.60;99.90
40960;DHT22;27842;52.272;8.052;2023-12-22T09:34:26;6.60;99.90
40960;DHT22;27842;52.272;8.052;2023-12-22T09:36:55;6.60;99.90
40960;DHT22;27842;52.272;8.052;2023-12-22T09:39:21;6.60;99.90
40960;DHT22;27842;52.272;8.052;2023-12-22T09:41:50;6.60;99.90
40960;DHT22;27842;52.272;8.052;2023-12-22T09:44:20;6.60;99.90
40960;DHT22;27842;52.272;8.052;2023-12-22T09:46:48;6.60;99.90
40960;DHT22;27842;52.272;8.052;2023-12-22T09:49:17;6.60;99.90
40960;DHT22;27842;52.272;8.052;2023-12-22T09:51:44;6.60;99.90
40960;DHT22;27842;52.272;8.052;2023-12-22T09:54:10;6.70;99.90
40960;DHT22;27842;52.272;8.052;2023-12-22T09:56:40;6.60;99.90
40960;DHT22;27842;52.272;8.052;2023-12-22T09:59:14;6.70;99.90
40960;DHT22;27842;52.272;8.052;2023-12-22T10:01:43;6.60;99.90
40960;DHT22;27842;52.272;8.052;2023-12-22T10:04:09;6.70;99.90
40960;DHT22;27842;52.272;8.052;2023-12-22T10:06:35;6.70;99.90
40960;DHT22;27842;52.272;8.052;2023-12-22T10:09:02;6.70;99.90
40960;DHT22;27842;52.272;8.052;2023-12-22T10:11:32;6.70;99.90
40960;DHT22;27842;52.272;8.052;2023-12-22T10:13:59;6.70;99.90
40960;DHT22;27842;52.272;8.052;2023-12-22T10:16:25;6.70;99.90
40960;DHT22;27842;52.272;8.052;2023-12-22T10:18:51;6.70;99.90
40960;DHT22;27842;52.272;8.052;2023-12-22T10:21:17;6.70;99.90
40960;DHT22;27842;52.272;8.052;2023-12-22T10:37:23;6.80;99.90
40960;DHT22;27842;52.272;8.052;2023-12-22T10:39:53;6.80;99.90
40960;DHT22;27842;52.272;8.052;2023-12-22T11:04:35;6.80;99.90
40960;DHT22;27842;52.272;8.052;2023-12-22T11:07:06;6.80;99.90
40960;DHT22;27842;52.272;8.052;2023-12-22T11:09:37;6.80;99.90
40960;DHT22;27842;52.272;8.052;2023-12-22T11:12:11;6.80;99.90
40960;DHT22;27842;52.272;8.052;2023-12-22T11:14:37;6.80;99.90
40960;DHT22;27842;52.272;8.052;2023-12-22T11:17:05;6.80;99.90
40960;DHT22;27842;52.272;8.052;2023-12-22T11:19:34;6.80;99.90
40960;DHT22;27842;52.272;8.052;2023-12-22T11:22:01;6.90;99.90
40960;DHT22;27842;52.272;8.052;2023-12-22T11:24:29;6.80;99.90
40960;DHT22;27842;52.272;8.052;2023-12-22T11:27:07;6.90;99.90
40960;DHT22;27842;52.272;8.052;2023-12-22T11:38:27;6.80;99.90
40960;DHT22;27842;52.272;8.052;2023-12-22T11:41:06;6.80;99.90
40960;DHT22;27842;52.272;8.052;2023-12-22T11:54:45;6.80;99.90
40960;DHT22;27842;52.272;8.052;2023-12-22T12:02:55;6.80;99.90
40960;DHT22;27842;52.272;8.052;2023-12-22T12:05:20;6.80;99.90
40960;DHT22;27842;52.272;8.052;2023-12-22T12:07:47;6.80;99.90
40960;DHT22;27842;52.272;8.052;2023-12-22T12:13:10;6.80;99.90
40960;DHT22;27842;52.272;8.052;2023-12-22T12:15:37;6.80;99.90
40960;DHT22;27842;52.272;8.052;2023-12-22T12:18:04;6.80;99.90
40960;DHT22;27842;52.272;8.052;2023-12-22T12:20:31;6.80;99.90
40960;DHT22;27842;52.272;8.052;2023-12-22T12:22:58;6.80;99.90
40960;DHT22;27842;52.272;8.052;2023-12-22T12:25:25;6.80;99.90
40960;DHT22;27842;52.272;8.052;2023-12-22T12:28:08;6.80;99.90
40960;DHT22;27842;52.272;8.052;2023-12-22T12:30:36;6.90;99.90
40960;DHT22;27842;52.272;8.052;2023-12-22T12:33:12;6.90;99.90
40960;DHT22;27842;52.272;8.052;2023-12-22T12:52:56;6.90;99.90
40960;DHT22;27842;52.272;8.052;2023-12-22T12:55:23;7.00;99.90
40960;DHT22;27842;52.272;8.052;2023-12-22T12:57:52;7.00;99.90
40960;DHT22;27842;52.272;8.052;2023-12-22T14:08:09;7.00;99.90
40960;DHT22;27842;52.272;8.052;2023-12-22T14:10:35;7.00;99.90
40960;DHT22;27842;52.272;8.052;2023-12-22T14:13:01;7.00;99.90
40960;DHT22;27842;52.272;8.052;2023-12-22T14:15:27;7.00;99.90
40960;DHT22;27842;52.272;8.052;2023-12-22T14:17:56;7.00;99.90
40960;DHT22;27842;52.272;8.052;2023-12-22T14:27:29;7.00;99.90
40960;DHT22;27842;52.272;8.052;2023-12-22T14:29:55;7.00;99.90
40960;DHT22;27842;52.272;8.052;2023-12-22T17:41:27;7.30;99.90
40960;DHT22;27842;52.272;8.052;2023-12-22T17:43:52;7.30;99.90
